createdAt,value
2017-07-12T00:01:35.181Z,14.90
2017-07-12T00:04:02.716Z,13.13
2017-07-12T00:06:30.286Z,13.90
2017-07-12T00:08:57.751Z,12.63
2017-07-12T00:11:25.299Z,12.73
2017-07-12T00:13:52.867Z,13.20
2017-07-12T00:16:20.431Z,16.07
2017-07-12T00:18:47.986Z,14.00
2017-07-12T00:21:15.543Z,15.17
2017-07-12T00:23:43.101Z,12.70
2017-07-12T00:26:10.658Z,15.10
2017-07-12T00:28:38.228Z,16.43
2017-07-12T00:31:06.494Z,16.17
2017-07-12T00:33:33.958Z,13.77
2017-07-12T00:36:01.509Z,15.20
2017-07-12T00:38:29.019Z,13.30
2017-07-12T00:40:56.480Z,12.67
2017-07-12T00:43:23.984Z,12.10
2017-07-12T00:45:51.445Z,14.20
2017-07-12T00:48:19.701Z,15.20
2017-07-12T00:50:47.178Z,15.23
2017-07-12T00:53:16.420Z,16.50
2017-07-12T00:55:43.880Z,16.77
2017-07-12T00:58:11.382Z,17.80
2017-07-12T01:00:38.839Z,15.70
2017-07-12T01:03:06.400Z,16.33
2017-07-12T01:05:33.871Z,15.30
2017-07-12T01:08:01.326Z,15.33
2017-07-12T01:10:29.554Z,16.03
2017-07-12T01:12:57.048Z,14.43
2017-07-12T01:15:25.298Z,18.20
2017-07-12T01:17:52.791Z,14.67
2017-07-12T01:20:21.047Z,15.80
2017-07-12T01:22:48.613Z,15.20
2017-07-12T01:25:16.890Z,17.07
2017-07-12T01:27:44.438Z,14.93
2017-07-12T01:30:11.911Z,13.00
2017-07-12T01:32:40.183Z,15.20
2017-07-12T01:35:08.447Z,15.57
2017-07-12T01:37:35.907Z,16.27
2017-07-12T01:40:03.366Z,18.77
2017-07-12T01:42:30.831Z,17.67
2017-07-12T01:44:59.081Z,18.93
2017-07-12T01:47:26.576Z,17.90
2017-07-12T01:49:54.037Z,19.23
2017-07-12T01:52:21.520Z,20.67
2017-07-12T01:54:49.027Z,20.40
2017-07-12T01:57:17.267Z,20.80
2017-07-12T01:59:44.753Z,24.70
2017-07-12T02:02:12.216Z,22.27
2017-07-12T02:04:40.465Z,21.20
2017-07-12T02:07:07.922Z,22.07
2017-07-12T02:09:35.392Z,20.50
2017-07-12T02:12:02.955Z,19.80
2017-07-12T02:14:30.515Z,21.00
2017-07-12T02:16:57.993Z,14.67
2017-07-12T02:19:26.238Z,12.70
2017-07-12T02:21:53.712Z,14.30
2017-07-12T02:24:21.175Z,15.67
2017-07-12T02:26:49.431Z,15.00
2017-07-12T02:29:16.891Z,14.80
2017-07-12T02:31:44.361Z,14.30
2017-07-12T02:34:12.781Z,15.80
2017-07-12T02:36:40.241Z,14.57
2017-07-12T02:39:07.706Z,18.73
2017-07-12T02:41:35.157Z,14.53
2017-07-12T02:44:02.650Z,15.30
2017-07-12T02:46:30.219Z,13.97
2017-07-12T02:48:57.686Z,15.03
2017-07-12T02:51:25.943Z,18.80
2017-07-12T02:53:53.507Z,17.53
2017-07-12T02:56:21.098Z,17.67
2017-07-12T02:58:48.562Z,17.00
2017-07-12T03:01:16.079Z,17.10
2017-07-12T03:03:43.634Z,20.23
2017-07-12T03:06:11.085Z,20.53
2017-07-12T03:08:38.563Z,17.77
2017-07-12T03:11:06.806Z,22.80
2017-07-12T03:13:34.271Z,19.50
2017-07-12T03:16:01.829Z,22.23
2017-07-12T03:18:29.386Z,22.23
2017-07-12T03:20:56.982Z,27.80
2017-07-12T03:23:24.522Z,26.07
2017-07-12T03:25:51.987Z,25.30
2017-07-12T03:28:20.270Z,26.40
2017-07-12T03:30:48.520Z,23.73
2017-07-12T03:33:15.980Z,29.00
2017-07-12T03:35:43.459Z,27.90
2017-07-12T03:38:11.702Z,25.33
2017-07-12T03:40:39.282Z,29.80
2017-07-12T03:43:07.555Z,32.23
2017-07-12T03:45:35.790Z,28.60
2017-07-12T03:48:03.277Z,33.07
2017-07-12T03:50:30.842Z,31.17
2017-07-12T03:52:58.401Z,33.50
2017-07-12T03:55:25.870Z,30.80
2017-07-12T03:57:54.122Z,31.63
2017-07-12T04:00:21.604Z,33.63
2017-07-12T04:02:49.854Z,28.47
2017-07-12T04:05:17.318Z,36.70
2017-07-12T04:07:44.883Z,32.53
2017-07-12T04:10:12.335Z,31.17
2017-07-12T04:12:40.600Z,31.33
2017-07-12T04:15:08.180Z,33.07
2017-07-12T04:17:36.413Z,32.73
2017-07-12T04:20:03.878Z,31.70
2017-07-12T04:22:31.466Z,29.87
2017-07-12T04:24:59.716Z,29.67
2017-07-12T04:27:27.174Z,29.70
2017-07-12T04:29:54.747Z,30.73
2017-07-12T04:32:22.298Z,28.77
2017-07-12T04:34:49.752Z,27.87
2017-07-12T04:37:17.225Z,26.37
2017-07-12T04:39:45.466Z,26.90
2017-07-12T04:42:12.937Z,27.10
2017-07-12T04:44:40.428Z,28.60
2017-07-12T04:47:08.663Z,26.07
2017-07-12T04:49:36.135Z,26.27
2017-07-12T04:52:03.598Z,30.37
2017-07-12T04:54:31.150Z,23.83
2017-07-12T04:56:58.742Z,31.07
2017-07-12T04:59:26.987Z,29.37
2017-07-12T05:01:54.448Z,28.10
2017-07-12T05:04:22.009Z,28.23
2017-07-12T05:06:49.460Z,31.03
2017-07-12T05:09:17.027Z,30.37
2017-07-12T05:11:44.582Z,28.00
2017-07-12T05:14:12.044Z,33.47
2017-07-12T05:16:40.294Z,29.63
2017-07-12T05:19:07.771Z,31.63
2017-07-12T05:21:35.250Z,30.03
2017-07-12T05:24:03.506Z,33.27
2017-07-12T05:26:30.976Z,31.60
2017-07-12T05:28:59.234Z,32.03
2017-07-12T05:31:26.789Z,35.50
2017-07-12T05:33:54.343Z,32.33
2017-07-12T05:36:21.906Z,32.47
2017-07-12T05:38:49.463Z,36.07
2017-07-12T05:41:17.034Z,33.70
2017-07-12T05:43:44.502Z,29.33
2017-07-12T05:46:12.759Z,28.10
2017-07-12T05:48:40.325Z,30.27
2017-07-12T05:51:08.649Z,28.37
2017-07-12T05:53:36.214Z,31.90
2017-07-12T05:56:03.662Z,27.13
2017-07-12T05:58:31.122Z,29.50
2017-07-12T06:00:58.631Z,26.57
2017-07-12T06:03:26.914Z,28.20
2017-07-12T06:05:55.142Z,27.50
2017-07-12T06:08:22.623Z,24.47
2017-07-12T06:10:50.185Z,30.50
2017-07-12T06:13:17.662Z,25.33
2017-07-12T06:15:45.926Z,27.57
2017-07-12T06:18:13.395Z,27.13
2017-07-12T06:20:41.620Z,25.63
2017-07-12T06:23:09.103Z,25.00
2017-07-12T06:25:36.664Z,24.10
2017-07-12T06:28:04.135Z,26.70
2017-07-12T06:30:32.378Z,24.70
2017-07-12T06:32:59.901Z,25.60
2017-07-12T06:35:27.416Z,27.97
2017-07-12T06:37:55.214Z,26.17
2017-07-12T06:40:22.719Z,26.00
2017-07-12T06:42:51.293Z,22.50
2017-07-12T06:45:19.638Z,23.73
2017-07-12T06:47:47.270Z,20.33
2017-07-12T06:50:15.515Z,23.03
2017-07-12T06:52:43.364Z,22.63
2017-07-12T06:55:11.484Z,22.30
2017-07-12T06:57:39.266Z,22.17
2017-07-12T07:00:07.226Z,20.70
2017-07-12T07:02:36.484Z,23.20
2017-07-12T07:05:04.979Z,18.30
2017-07-12T07:07:33.228Z,22.03
2017-07-12T07:10:02.548Z,22.70
2017-07-12T07:12:30.603Z,23.00
2017-07-12T07:14:58.140Z,20.00
2017-07-12T07:17:25.731Z,17.93
2017-07-12T07:19:53.428Z,20.47
2017-07-12T07:22:20.991Z,19.07
2017-07-12T07:24:48.475Z,19.20
2017-07-12T07:27:16.071Z,18.90
2017-07-12T07:29:43.579Z,21.43
2017-07-12T07:32:12.351Z,17.47
2017-07-12T07:34:40.802Z,17.23
2017-07-12T07:37:08.673Z,17.90
2017-07-12T07:39:36.440Z,18.40
2017-07-12T07:42:04.636Z,15.97
2017-07-12T07:44:32.888Z,16.80
2017-07-12T07:47:01.120Z,20.90
2017-07-12T07:49:28.590Z,17.93
2017-07-12T07:51:56.246Z,17.73
2017-07-12T07:54:23.744Z,16.10
2017-07-12T07:56:51.987Z,17.80
2017-07-12T07:59:19.460Z,15.30
2017-07-12T08:01:46.991Z,15.70
2017-07-12T08:04:14.472Z,16.30
2017-07-12T08:06:41.939Z,16.47
2017-07-12T08:09:09.399Z,17.60
2017-07-12T08:11:38.655Z,16.53
2017-07-12T08:14:06.146Z,15.93
2017-07-12T08:16:33.620Z,13.67
2017-07-12T08:19:01.887Z,11.97
2017-07-12T08:21:30.167Z,10.73
2017-07-12T08:23:58.443Z,9.17
2017-07-12T08:26:26.676Z,9.20
2017-07-12T08:28:54.148Z,9.27
2017-07-12T08:31:21.727Z,10.80
2017-07-12T08:33:49.192Z,11.80
2017-07-12T08:36:17.434Z,12.43
2017-07-12T08:38:45.052Z,10.30
2017-07-12T08:41:12.571Z,15.53
2017-07-12T08:43:40.054Z,12.50
2017-07-12T08:46:07.518Z,11.27
2017-07-12T08:48:35.048Z,10.47
2017-07-12T08:51:03.285Z,11.60
2017-07-12T08:53:30.755Z,10.27
2017-07-12T08:55:58.211Z,8.23
2017-07-12T08:58:25.735Z,6.17
2017-07-12T09:00:53.190Z,6.00
2017-07-12T09:03:20.703Z,6.73
2017-07-12T09:05:48.967Z,4.90
2017-07-12T09:08:16.530Z,3.87
2017-07-12T09:10:43.994Z,5.10
2017-07-12T09:13:11.543Z,5.00
2017-07-12T09:15:39.052Z,4.50
2017-07-12T09:18:06.587Z,4.77
2017-07-12T09:20:34.822Z,5.20
2017-07-12T09:23:02.290Z,6.10
2017-07-12T09:35:21.226Z,5.83
2017-07-12T09:37:49.497Z,5.13
2017-07-12T09:40:17.730Z,5.40
2017-07-12T09:42:45.215Z,5.67
2017-07-12T09:45:12.778Z,5.43
2017-07-12T09:47:40.234Z,5.80
2017-07-12T09:50:07.708Z,5.27
2017-07-12T09:52:35.976Z,5.27
2017-07-12T09:55:03.425Z,5.40
2017-07-12T09:57:30.887Z,5.23
2017-07-12T09:59:58.359Z,4.73
2017-07-12T10:02:26.595Z,4.80
2017-07-12T10:04:54.051Z,3.30
2017-07-12T10:07:21.513Z,1.70
2017-07-12T10:09:48.982Z,1.47
2017-07-12T10:12:16.450Z,1.67
2017-07-12T10:14:46.089Z,1.10
2017-07-12T10:17:13.562Z,1.00
2017-07-12T10:19:41.061Z,1.07
2017-07-12T10:22:08.519Z,1.10
2017-07-12T10:24:35.983Z,1.10
2017-07-12T10:27:04.206Z,1.20
2017-07-12T10:29:31.676Z,1.20
2017-07-12T10:31:59.225Z,0.97
2017-07-12T10:34:26.733Z,1.17
2017-07-12T10:36:54.954Z,1.00
2017-07-12T10:39:22.417Z,1.30
2017-07-12T10:41:49.883Z,0.90
2017-07-12T10:44:17.353Z,0.87
2017-07-12T10:46:44.816Z,1.10
2017-07-12T10:49:12.350Z,0.93
2017-07-12T10:51:39.866Z,1.20
2017-07-12T10:54:07.396Z,1.70
2017-07-12T10:56:34.867Z,1.20
2017-07-12T10:59:03.088Z,1.50
2017-07-12T11:01:30.547Z,2.20
2017-07-12T11:03:58.023Z,2.50
2017-07-12T11:06:25.555Z,2.43
2017-07-12T11:08:53.062Z,2.17
2017-07-12T11:11:21.328Z,3.10
2017-07-12T11:13:48.785Z,3.03
2017-07-12T11:16:16.242Z,2.80
2017-07-12T11:18:43.778Z,3.27
2017-07-12T11:21:11.258Z,3.43
2017-07-12T11:23:38.720Z,3.03
2017-07-12T11:26:06.283Z,2.83
2017-07-12T11:28:33.732Z,3.30
2017-07-12T11:31:01.195Z,3.57
2017-07-12T11:33:28.659Z,3.87
2017-07-12T11:35:56.877Z,2.57
2017-07-12T11:38:24.346Z,3.10
2017-07-12T11:40:51.827Z,2.73
2017-07-12T11:43:19.290Z,3.10
2017-07-12T11:45:46.779Z,3.33
2017-07-12T11:48:15.033Z,4.10
2017-07-12T11:50:43.291Z,4.07
2017-07-12T11:53:10.860Z,3.40
2017-07-12T11:58:35.926Z,2.90
2017-07-12T12:03:57.099Z,2.80
2017-07-12T12:06:24.573Z,3.37
2017-07-12T12:08:52.030Z,3.07
2017-07-12T12:11:20.257Z,3.20
2017-07-12T12:13:47.758Z,3.30
2017-07-12T12:16:15.310Z,3.37
2017-07-12T12:18:42.879Z,3.70
2017-07-12T12:21:10.368Z,3.40
2017-07-12T12:23:37.830Z,2.90
2017-07-12T12:26:05.414Z,2.37
2017-07-12T12:28:32.878Z,2.40
2017-07-12T12:31:00.362Z,2.77
2017-07-12T12:33:27.818Z,3.00
2017-07-12T12:35:55.388Z,2.60
2017-07-12T12:38:22.842Z,3.03
2017-07-12T12:40:50.318Z,2.43
2017-07-12T12:43:18.575Z,2.43
2017-07-12T12:45:46.047Z,2.30
2017-07-12T12:48:14.268Z,2.90
2017-07-12T12:50:41.810Z,1.90
2017-07-12T12:53:09.271Z,2.10
2017-07-12T12:55:36.751Z,2.33
2017-07-12T12:58:04.211Z,2.00
2017-07-12T13:00:31.685Z,2.53
2017-07-12T13:02:59.134Z,2.30
2017-07-12T13:05:42.270Z,1.47
2017-07-12T13:08:09.735Z,2.50
2017-07-12T13:10:37.199Z,1.90
2017-07-12T13:13:05.426Z,3.10
2017-07-12T13:15:33.012Z,2.93
2017-07-12T13:18:01.188Z,3.20
2017-07-12T13:20:28.654Z,2.47
2017-07-12T13:22:56.902Z,3.13
2017-07-12T13:25:24.374Z,2.30
2017-07-12T13:27:51.844Z,2.70
2017-07-12T13:30:20.073Z,2.57
2017-07-12T13:32:47.578Z,3.00
2017-07-12T13:35:15.968Z,2.90
2017-07-12T13:37:43.431Z,2.87
2017-07-12T13:40:10.890Z,2.30
2017-07-12T13:42:38.416Z,3.03
2017-07-12T13:45:06.663Z,2.33
2017-07-12T13:47:34.119Z,2.87
2017-07-12T13:50:01.585Z,2.37
2017-07-12T13:52:29.058Z,2.50
2017-07-12T13:54:56.616Z,2.73
2017-07-12T13:57:24.091Z,2.53
2017-07-12T13:59:52.342Z,2.60
2017-07-12T14:02:19.852Z,2.40
2017-07-12T14:04:47.313Z,2.53
2017-07-12T14:07:14.770Z,2.10
2017-07-12T14:09:42.242Z,2.20
2017-07-12T14:12:09.779Z,2.37
2017-07-12T14:14:37.239Z,2.07
2017-07-12T14:17:04.691Z,2.30
2017-07-12T14:19:32.155Z,2.50
2017-07-12T14:21:59.647Z,2.13
2017-07-12T14:24:27.111Z,2.23
2017-07-12T14:26:54.684Z,2.27
2017-07-12T14:29:22.934Z,2.07
2017-07-12T14:31:50.400Z,3.03
2017-07-12T14:34:17.891Z,2.07
2017-07-12T14:36:45.355Z,1.60
2017-07-12T14:39:12.879Z,2.30
2017-07-12T14:41:40.350Z,1.77
2017-07-12T14:44:08.612Z,2.57
2017-07-12T14:46:36.061Z,1.73
2017-07-12T14:49:03.542Z,2.33
2017-07-12T14:51:31.035Z,2.17
2017-07-12T14:53:58.512Z,1.80
2017-07-12T14:56:25.974Z,1.60
2017-07-12T14:58:53.445Z,1.63
2017-07-12T15:01:20.906Z,1.50
2017-07-12T15:03:48.414Z,2.43
2017-07-12T15:06:15.875Z,1.50
2017-07-12T15:08:43.347Z,2.03
2017-07-12T15:11:10.811Z,2.40
2017-07-12T15:13:38.267Z,1.33
2017-07-12T15:16:05.725Z,1.50
2017-07-12T15:18:33.210Z,1.63
2017-07-12T15:21:00.667Z,1.47
2017-07-12T15:23:32.086Z,2.03
2017-07-12T15:25:59.564Z,1.30
2017-07-12T15:28:27.267Z,1.40
2017-07-12T15:30:54.748Z,1.50
2017-07-12T15:33:22.224Z,1.70
2017-07-12T15:35:49.670Z,1.60
2017-07-12T15:38:17.165Z,1.50
2017-07-12T15:40:44.643Z,1.30
2017-07-12T15:43:12.163Z,1.70
2017-07-12T15:48:14.228Z,1.57
2017-07-12T15:50:41.844Z,2.00
2017-07-12T15:53:09.298Z,1.30
2017-07-12T15:55:37.573Z,1.30
2017-07-12T15:58:05.084Z,1.70
2017-07-12T16:00:32.674Z,1.27
2017-07-12T16:03:00.218Z,1.73
2017-07-12T16:05:28.487Z,1.37
2017-07-12T16:07:55.958Z,1.30
2017-07-12T16:10:23.415Z,1.60
2017-07-12T16:12:51.656Z,1.53
2017-07-12T16:15:19.111Z,1.50
2017-07-12T16:17:46.595Z,1.20
2017-07-12T16:20:14.851Z,1.77
2017-07-12T16:22:42.336Z,1.80
2017-07-12T16:25:10.589Z,1.53
2017-07-12T16:27:38.046Z,1.70
2017-07-12T16:30:05.524Z,1.50
2017-07-12T16:32:32.985Z,2.73
2017-07-12T16:35:01.225Z,1.90
2017-07-12T16:37:28.692Z,1.77
2017-07-12T16:39:56.228Z,1.80
2017-07-12T16:42:23.676Z,1.83
2017-07-12T16:44:51.490Z,1.77
2017-07-12T16:47:18.948Z,1.73
2017-07-12T16:49:47.175Z,2.30
2017-07-12T16:52:14.664Z,2.20
2017-07-12T16:54:42.126Z,1.70
2017-07-12T16:57:09.586Z,1.90
2017-07-12T16:59:37.075Z,1.77
2017-07-12T17:02:04.557Z,2.20
2017-07-12T17:04:32.066Z,2.00
2017-07-12T17:07:00.317Z,1.60
2017-07-12T17:09:27.798Z,2.40
2017-07-12T17:11:55.243Z,1.63
2017-07-12T17:14:22.750Z,1.50
2017-07-12T17:16:50.215Z,1.33
2017-07-12T17:19:17.674Z,3.50
2017-07-12T17:21:45.138Z,1.77
2017-07-12T17:24:12.662Z,1.30
2017-07-12T17:26:40.159Z,1.40
2017-07-12T17:29:07.659Z,1.77
2017-07-12T17:31:35.903Z,1.30
2017-07-12T17:34:03.434Z,1.73
2017-07-12T17:36:30.905Z,1.30
2017-07-12T17:38:58.693Z,1.40
2017-07-12T17:41:26.157Z,1.80
2017-07-12T17:43:54.467Z,1.40
2017-07-12T17:46:21.948Z,1.10
2017-07-12T17:48:49.410Z,2.20
2017-07-12T17:51:17.127Z,1.40
2017-07-12T17:53:44.587Z,1.50
2017-07-12T17:56:12.039Z,1.40
2017-07-12T17:58:39.532Z,1.73
2017-07-12T18:01:06.989Z,1.77
2017-07-12T18:03:34.492Z,2.90
2017-07-12T18:06:02.050Z,2.50
2017-07-12T18:08:30.341Z,1.90
2017-07-12T18:10:58.566Z,1.60
2017-07-12T18:13:26.067Z,1.83
2017-07-12T18:15:54.328Z,2.33
2017-07-12T18:18:21.796Z,2.23
2017-07-12T18:20:49.368Z,3.00
2017-07-12T18:23:17.578Z,1.40
2017-07-12T18:25:45.059Z,2.83
2017-07-12T18:28:12.548Z,1.50
2017-07-12T18:30:40.765Z,1.43
2017-07-12T18:33:08.227Z,1.57
2017-07-12T18:35:36.021Z,1.60
2017-07-12T18:38:03.578Z,1.60
2017-07-12T18:40:31.063Z,1.20
2017-07-12T18:42:59.401Z,1.30
2017-07-12T18:45:26.871Z,1.60
2017-07-12T18:47:54.331Z,1.53
2017-07-12T18:50:21.787Z,1.70
2017-07-12T18:52:49.347Z,2.23
2017-07-12T18:55:16.909Z,1.73
2017-07-12T18:57:44.418Z,2.30
2017-07-12T19:00:11.898Z,1.70
2017-07-12T19:02:39.355Z,1.70
2017-07-12T19:05:06.818Z,1.53
2017-07-12T19:07:34.269Z,1.77
2017-07-12T19:10:01.740Z,3.20
2017-07-12T19:12:29.226Z,1.87
2017-07-12T19:14:56.695Z,1.60
2017-07-12T19:17:24.179Z,2.23
2017-07-12T19:19:51.655Z,1.83
2017-07-12T19:22:19.148Z,1.60
2017-07-12T19:24:46.727Z,2.17
2017-07-12T19:27:14.219Z,1.70
2017-07-12T19:29:41.663Z,1.60
2017-07-12T19:32:09.140Z,2.10
2017-07-12T19:34:36.703Z,1.93
2017-07-12T19:37:04.964Z,1.70
2017-07-12T19:39:32.411Z,1.77
2017-07-12T19:41:59.891Z,2.17
2017-07-12T19:44:27.506Z,1.40
2017-07-12T19:46:55.035Z,1.70
2017-07-12T19:49:23.306Z,1.70
2017-07-12T19:51:51.563Z,1.87
2017-07-12T19:54:19.035Z,1.43
2017-07-12T19:56:46.566Z,2.20
2017-07-12T19:59:14.734Z,1.53
2017-07-12T20:01:42.219Z,2.40
2017-07-12T20:04:09.707Z,1.80
2017-07-12T20:06:37.938Z,2.10
2017-07-12T20:09:05.411Z,1.50
2017-07-12T20:11:32.865Z,1.93
2017-07-12T20:14:00.324Z,2.90
2017-07-12T20:16:27.778Z,2.27
2017-07-12T20:18:55.957Z,2.17
2017-07-12T20:21:23.442Z,1.77
2017-07-12T20:23:50.931Z,2.33
2017-07-12T20:26:18.382Z,2.00
2017-07-12T20:28:45.861Z,1.77
2017-07-12T20:31:13.449Z,1.83
2017-07-12T20:33:44.498Z,1.87
2017-07-12T20:36:12.575Z,1.47
2017-07-12T20:38:41.061Z,2.20
2017-07-12T20:41:09.929Z,2.00
2017-07-12T20:43:38.511Z,1.90
2017-07-12T20:46:09.242Z,2.10
2017-07-12T20:48:38.772Z,2.70
2017-07-12T20:51:07.315Z,2.07
2017-07-12T20:53:36.629Z,1.60
2017-07-12T20:56:05.967Z,1.80
2017-07-12T20:58:36.184Z,2.10
2017-07-12T21:01:06.980Z,1.80
2017-07-12T21:03:34.439Z,2.40
2017-07-12T21:06:01.946Z,1.70
2017-07-12T21:08:29.418Z,1.90
2017-07-12T21:10:57.987Z,1.73
2017-07-12T21:13:25.442Z,2.47
2017-07-12T21:15:53.264Z,1.80
2017-07-12T21:18:21.488Z,1.97
2017-07-12T21:20:48.966Z,1.90
2017-07-12T21:23:16.459Z,1.80
2017-07-12T21:25:43.928Z,1.83
2017-07-12T21:28:11.395Z,1.60
2017-07-12T21:30:38.889Z,1.87
2017-07-12T21:33:06.355Z,1.80
2017-07-12T21:35:33.871Z,1.97
2017-07-12T21:38:01.342Z,1.80
2017-07-12T21:40:28.850Z,1.90
2017-07-12T21:42:56.435Z,2.10
2017-07-12T21:45:23.896Z,2.00
2017-07-12T21:47:51.414Z,1.73
2017-07-12T21:50:18.866Z,1.70
2017-07-12T21:52:46.338Z,1.50
2017-07-12T21:55:32.397Z,2.27
2017-07-12T21:58:17.593Z,2.07
2017-07-12T22:01:02.796Z,2.67
2017-07-12T22:03:48.052Z,1.83
2017-07-12T22:06:33.331Z,2.10
2017-07-12T22:09:19.279Z,2.10
2017-07-12T22:12:04.331Z,2.00
2017-07-12T22:14:49.822Z,2.20
2017-07-12T22:17:34.973Z,2.10
2017-07-12T22:20:20.186Z,2.40
2017-07-12T22:23:05.345Z,2.20
2017-07-12T22:25:50.598Z,2.43
2017-07-12T22:28:35.604Z,2.13
2017-07-12T22:31:20.864Z,2.20
2017-07-12T22:34:06.117Z,2.27
2017-07-12T22:36:51.509Z,2.40
2017-07-12T22:39:24.806Z,2.30
2017-07-12T22:41:58.108Z,3.03
2017-07-12T22:44:25.067Z,2.40
2017-07-12T22:46:52.527Z,2.70
2017-07-12T22:49:20.767Z,2.50
2017-07-12T22:51:48.220Z,3.03
2017-07-12T22:54:15.673Z,2.40
2017-07-12T22:56:43.151Z,2.73
2017-07-12T22:59:10.727Z,2.80
2017-07-12T23:01:38.954Z,2.60
2017-07-12T23:04:07.435Z,2.97
2017-07-12T23:06:34.940Z,2.60
2017-07-12T23:09:02.500Z,3.30
2017-07-12T23:11:29.975Z,2.50
2017-07-12T23:13:58.217Z,3.20
2017-07-12T23:16:25.735Z,3.00
2017-07-12T23:18:53.240Z,2.73
2017-07-12T23:21:20.690Z,3.17
2017-07-12T23:23:48.145Z,2.90
2017-07-12T23:26:15.623Z,2.63
2017-07-12T23:28:43.843Z,2.83
2017-07-12T23:31:11.303Z,2.20
2017-07-12T23:33:38.759Z,2.20
2017-07-12T23:36:06.222Z,3.50
2017-07-12T23:38:33.715Z,4.53
2017-07-12T23:41:01.183Z,2.60
2017-07-12T23:43:29.404Z,2.40
2017-07-12T23:45:56.863Z,2.20
2017-07-12T23:48:24.335Z,2.37
2017-07-12T23:50:51.906Z,3.23
2017-07-12T23:53:19.362Z,2.33
2017-07-12T23:55:46.826Z,3.03
2017-07-12T23:58:14.274Z,3.03
